Time;durP1;ratioP1;P1;durP2;ratioP2;P2;SDS_P1;SDS_P2;PMS_P1;PMS_P2;Temp;Humidity;BMP_temperature;BMP_pressure;BME280_temperature;BME280_humidity;BME280_pressure;Samples;Min_cycle;Max_cycle;Signal;HPM_P1;HPM_P2
2023/06/09 00:00:29;;;;;;;4.70;4.30;;;;;;;;;;6244554;28;20121;-80
2023/06/09 00:03:31;;;;;;;;;;;;;;;;;;6242226;28;20049;-80
2023/06/09 00:06:35;;;;;;;4.10;3.63;;;;;;;;;;6244376;28;19918;-80
2023/06/09 00:09:37;;;;;;;5.70;3.67;;;;;;;;;;6241352;28;20042;-80
2023/06/09 00:12:39;;;;;;;4.55;3.83;;;;;;;;;;6247279;28;20045;-79
2023/06/09 00:15:45;;;;;;;5.90;4.03;;;;;;;;;;6247788;28;20121;-80
2023/06/09 00:18:47;;;;;;;6.00;3.63;;;;;;;;;;6244503;28;20128;-80
2023/06/09 00:21:51;;;;;;;5.18;4.35;;;;;;;;;;6246856;28;20109;-80
2023/06/09 00:24:52;;;;;;;4.30;3.78;;;;;;;;;;6244671;28;20399;-79
2023/06/09 00:27:54;;;;;;;6.50;4.00;;;;;;;;;;6242252;28;20050;-79
2023/06/09 00:30:57;;;;;;;5.97;4.00;;;;;;;;;;6244754;28;20237;-80
2023/06/09 00:33:59;;;;;;;4.40;3.90;;;;;;;;;;6243679;28;20053;-80
2023/06/09 00:37:00;;;;;;;3.92;3.35;;;;;;;;;;6244760;28;20053;-79
2023/06/09 00:40:03;;;;;;;4.75;3.80;;;;;;;;;;6246075;28;20052;-80
2023/06/09 00:43:05;;;;;;;5.22;4.32;;;;;;;;;;6246681;28;20058;-79
2023/06/09 00:46:08;;;;;;;4.75;4.00;;;;;;;;;;6247014;28;20069;-80
2023/06/09 00:49:10;;;;;;;4.45;3.58;;;;;;;;;;6242264;28;20045;-80
2023/06/09 00:52:12;;;;;;;6.07;4.00;;;;;;;;;;6240021;28;20171;-79
2023/06/09 00:55:14;;;;;;;5.05;4.03;;;;;;;;;;6243834;28;20257;-80
2023/06/09 00:58:17;;;;;;;5.35;3.75;;;;;;;;;;6246958;28;20073;-80
2023/06/09 01:01:20;;;;;;;8.82;4.20;;;;;;;;;;6244807;28;20063;-80
2023/06/09 01:04:21;;;;;;;5.97;3.92;;;;;;;;;;6243294;28;20349;-80
2023/06/09 01:07:33;;;;;;;6.32;4.10;;;;;;;;;;6239745;28;20113;-80
2023/06/09 01:10:41;;;;;;;5.00;3.70;;;;;;;;;;6244150;28;20049;-80
2023/06/09 01:13:47;;;;;;;5.68;3.97;;;;;;;;;;6245925;28;20057;-80
2023/06/09 01:16:54;;;;;;;6.18;3.97;;;;;;;;;;6245097;28;20053;-81
2023/06/09 01:19:58;;;;;;;6.32;4.10;;;;;;;;;;6240291;28;20111;-80
2023/06/09 01:23:06;;;;;;;7.60;4.53;;;;;;;;;;6243056;28;20049;-80
2023/06/09 01:26:10;;;;;;;8.07;4.63;;;;;;;;;;6243873;28;20049;-80
2023/06/09 01:29:14;;;;;;;6.00;4.57;;;;;;;;;;6242267;28;20053;-81
2023/06/09 01:32:17;;;;;;;9.75;4.88;;;;;;;;;;6242793;28;20299;-80
2023/06/09 01:35:18;;;;;;;10.35;5.80;;;;;;;;;;6240370;28;20290;-80
2023/06/09 01:38:21;;;;;;;12.80;9.57;;;;;;;;;;6242856;28;20261;-81
2023/06/09 01:41:25;;;;;;;13.68;11.00;;;;;;;;;;6245823;28;20265;-79
2023/06/09 01:44:27;;;;;;;14.77;11.25;;;;;;;;;;6241437;28;20398;-80
2023/06/09 01:47:29;;;;;;;12.80;10.48;;;;;;;;;;6241892;28;20057;-80
2023/06/09 01:50:35;;;;;;;13.82;11.23;;;;;;;;;;6243150;28;20045;-79
2023/06/09 01:53:39;;;;;;;14.38;11.25;;;;;;;;;;6244154;28;20050;-80
2023/06/09 01:56:45;;;;;;;14.88;12.07;;;;;;;;;;6240185;28;20065;-81
2023/06/09 01:59:52;;;;;;;15.10;11.65;;;;;;;;;;6243489;28;20095;-80
2023/06/09 02:02:56;;;;;;;14.73;11.45;;;;;;;;;;6241961;28;20338;-80
2023/06/09 02:05:58;;;;;;;14.15;11.82;;;;;;;;;;6246625;28;20045;-79
2023/06/09 02:09:00;;;;;;;13.73;11.13;;;;;;;;;;6222965;28;20048;-80
2023/06/09 02:12:04;;;;;;;14.65;12.38;;;;;;;;;;6241054;28;20100;-80
2023/06/09 02:15:07;;;;;;;16.35;12.95;;;;;;;;;;6242172;28;20053;-80
2023/06/09 02:18:11;;;;;;;18.60;13.47;;;;;;;;;;6243070;28;20495;-80
2023/06/09 02:21:13;;;;;;;20.65;15.18;;;;;;;;;;6245305;28;20593;-80
2023/06/09 02:24:16;;;;;;;21.00;15.82;;;;;;;;;;6241449;28;20057;-80
2023/06/09 02:27:19;;;;;;;18.67;15.15;;;;;;;;;;6239578;28;20109;-80
2023/06/09 02:30:21;;;;;;;21.35;14.95;;;;;;;;;;6240092;28;20053;-80
2023/06/09 02:33:24;;;;;;;18.48;15.23;;;;;;;;;;6219387;28;20053;-80
2023/06/09 02:36:26;;;;;;;20.08;16.25;;;;;;;;;;6219546;28;20058;-82
2023/06/09 02:39:28;;;;;;;22.30;16.63;;;;;;;;;;6215473;28;20054;-80
2023/06/09 02:42:31;;;;;;;27.90;17.88;;;;;;;;;;6220488;28;20057;-82
2023/06/09 02:45:33;;;;;;;22.90;17.58;;;;;;;;;;6215758;28;20320;-81
2023/06/09 02:48:35;;;;;;;23.88;17.85;;;;;;;;;;6217585;28;20057;-80
2023/06/09 02:51:37;;;;;;;24.52;19.40;;;;;;;;;;6218763;28;20276;-81
2023/06/09 02:54:40;;;;;;;24.15;17.92;;;;;;;;;;6218455;28;20093;-79
2023/06/09 02:57:43;;;;;;;24.83;19.23;;;;;;;;;;6216302;28;20049;-80
2023/06/09 03:00:45;;;;;;;25.85;18.73;;;;;;;;;;6216571;28;20062;-80
2023/06/09 03:03:47;;;;;;;25.27;19.27;;;;;;;;;;6214269;28;20092;-80
2023/06/09 03:06:50;;;;;;;24.55;18.73;;;;;;;;;;6218437;28;20367;-81
2023/06/09 03:09:52;;;;;;;28.50;20.53;;;;;;;;;;6215963;28;20360;-80
2023/06/09 03:12:55;;;;;;;27.23;20.73;;;;;;;;;;6218333;28;20064;-80
2023/06/09 03:15:57;;;;;;;26.70;20.38;;;;;;;;;;6220082;28;20058;-79
2023/06/09 03:18:58;;;;;;;25.85;19.65;;;;;;;;;;6222301;28;20058;-80
2023/06/09 03:22:03;;;;;;;26.50;20.33;;;;;;;;;;6218494;28;20054;-80
2023/06/09 03:25:05;;;;;;;26.52;20.38;;;;;;;;;;6206339;28;20054;-80
2023/06/09 03:28:08;;;;;;;27.23;20.08;;;;;;;;;;6221140;28;20342;-81
2023/06/09 03:31:13;;;;;;;26.65;20.45;;;;;;;;;;6227467;28;20291;-82
2023/06/09 03:34:14;;;;;;;27.52;21.50;;;;;;;;;;6247728;28;20046;-78
2023/06/09 03:37:16;;;;;;;29.00;21.00;;;;;;;;;;6246708;28;20103;-80
2023/06/09 03:40:18;;;;;;;28.15;20.80;;;;;;;;;;6246778;28;20245;-80
2023/06/09 03:43:21;;;;;;;26.58;20.35;;;;;;;;;;6245816;28;20057;-80
2023/06/09 03:46:23;;;;;;;26.60;21.40;;;;;;;;;;6249928;28;20056;-80
2023/06/09 03:49:24;;;;;;;26.27;19.33;;;;;;;;;;6243249;28;20050;-81
2023/06/09 03:52:27;;;;;;;28.15;20.60;;;;;;;;;;6246226;28;20053;-80
2023/06/09 03:55:31;;;;;;;28.00;19.27;;;;;;;;;;6245465;28;20053;-80
2023/06/09 03:58:34;;;;;;;26.67;20.33;;;;;;;;;;6245138;28;20064;-80
2023/06/09 04:01:36;;;;;;;26.92;20.63;;;;;;;;;;6243875;28;20353;-81
2023/06/09 04:04:37;;;;;;;28.15;20.98;;;;;;;;;;6245541;28;20061;-80
2023/06/09 04:07:39;;;;;;;29.13;21.95;;;;;;;;;;6242877;28;20341;-80
2023/06/09 04:10:41;;;;;;;30.98;22.15;;;;;;;;;;6243770;28;20053;-81
2023/06/09 04:13:44;;;;;;;27.38;20.90;;;;;;;;;;6241622;28;20253;-80
2023/06/09 04:16:46;;;;;;;39.65;21.80;;;;;;;;;;6245893;28;20069;-80
2023/06/09 04:19:48;;;;;;;27.08;20.88;;;;;;;;;;6242568;28;20069;-81
2023/06/09 04:22:50;;;;;;;28.23;21.05;;;;;;;;;;6246033;28;20233;-80
2023/06/09 04:25:53;;;;;;;27.70;21.35;;;;;;;;;;6242413;28;20056;-81
2023/06/09 04:28:56;;;;;;;27.10;21.27;;;;;;;;;;6249899;28;20054;-81
2023/06/09 04:31:58;;;;;;;29.20;21.48;;;;;;;;;;6245100;28;20254;-80
2023/06/09 04:35:00;;;;;;;28.85;21.73;;;;;;;;;;6242387;28;20223;-80
2023/06/09 04:38:03;;;;;;;30.20;21.15;;;;;;;;;;6242014;28;20093;-81
2023/06/09 04:41:04;;;;;;;26.42;19.98;;;;;;;;;;6242874;28;20326;-80
2023/06/09 04:44:07;;;;;;;28.23;21.35;;;;;;;;;;6243740;28;20408;-80
2023/06/09 04:47:10;;;;;;;30.35;21.05;;;;;;;;;;6241469;28;20060;-80
2023/06/09 04:50:12;;;;;;;26.75;20.08;;;;;;;;;;6247996;28;20046;-80
2023/06/09 04:53:15;;;;;;;25.60;19.85;;;;;;;;;;6228797;28;20061;-80
2023/06/09 04:56:16;;;;;;;28.90;20.67;;;;;;;;;;6241556;28;20061;-79
2023/06/09 04:59:20;;;;;;;30.25;20.45;;;;;;;;;;6240394;28;20526;-76
2023/06/09 05:02:22;;;;;;;29.80;21.83;;;;;;;;;;6241320;28;20096;-78
2023/06/09 05:05:24;;;;;;;26.33;19.58;;;;;;;;;;6248924;28;20364;-78
2023/06/09 05:08:26;;;;;;;24.10;18.63;;;;;;;;;;6245280;28;20045;-80
2023/06/09 05:11:27;;;;;;;25.13;19.52;;;;;;;;;;6244174;28;20266;-78
2023/06/09 05:14:30;;;;;;;24.83;18.95;;;;;;;;;;6244178;28;20054;-78
2023/06/09 05:17:33;;;;;;;23.45;18.17;;;;;;;;;;6244388;28;20112;-77
2023/06/09 05:20:35;;;;;;;24.75;18.65;;;;;;;;;;6243305;28;20135;-78
2023/06/09 05:23:37;;;;;;;26.02;19.33;;;;;;;;;;6241525;28;20052;-78
2023/06/09 05:26:38;;;;;;;27.52;19.42;;;;;;;;;;6246914;28;20057;-78
2023/06/09 05:29:41;;;;;;;27.25;18.35;;;;;;;;;;6240973;28;20073;-78
2023/06/09 05:32:43;;;;;;;24.27;17.90;;;;;;;;;;6240822;28;20254;-77
2023/06/09 05:35:47;;;;;;;27.88;19.88;;;;;;;;;;6241904;28;20128;-79
2023/06/09 05:38:48;;;;;;;;;;;;;;;;;;6244567;28;20334;-78
2023/06/09 05:41:50;;;;;;;26.98;17.50;;;;;;;;;;6241146;28;19933;-78
2023/06/09 05:44:53;;;;;;;26.23;19.17;;;;;;;;;;6241275;28;20045;-79
2023/06/09 05:47:55;;;;;;;22.50;17.13;;;;;;;;;;6245410;28;20720;-79
2023/06/09 05:50:57;;;;;;;24.50;18.45;;;;;;;;;;6241703;28;20068;-77
2023/06/09 05:53:59;;;;;;;24.83;18.27;;;;;;;;;;6239562;28;20108;-78
2023/06/09 05:57:03;;;;;;;25.80;17.58;;;;;;;;;;6243171;28;20061;-78
2023/06/09 06:00:09;;;;;;;22.63;18.55;;;;;;;;;;6238292;28;20061;-78
2023/06/09 06:03:11;;;;;;;22.13;16.50;;;;;;;;;;6242295;28;20134;-78
2023/06/09 06:06:12;;;;;;;22.05;16.70;;;;;;;;;;6244523;28;20060;-78
2023/06/09 06:09:14;;;;;;;22.92;17.35;;;;;;;;;;6243054;28;20076;-78
2023/06/09 06:12:16;;;;;;;25.27;16.67;;;;;;;;;;6243803;28;20068;-79
2023/06/09 06:15:19;;;;;;;21.13;16.48;;;;;;;;;;6236346;28;20061;-78
2023/06/09 06:18:21;;;;;;;22.90;17.25;;;;;;;;;;6240153;28;20108;-77
2023/06/09 06:21:23;;;;;;;21.33;15.75;;;;;;;;;;6242086;28;20266;-79
2023/06/09 06:24:25;;;;;;;20.10;15.95;;;;;;;;;;6240186;28;20056;-79
2023/06/09 06:27:27;;;;;;;20.20;15.98;;;;;;;;;;6239970;28;20265;-79
2023/06/09 06:30:30;;;;;;;15.60;11.75;;;;;;;;;;6245114;28;20242;-78
2023/06/09 06:33:32;;;;;;;16.60;9.13;;;;;;;;;;6240085;28;20127;-78
2023/06/09 06:36:33;;;;;;;8.75;7.05;;;;;;;;;;6239295;28;20068;-79
2023/06/09 06:39:35;;;;;;;9.05;6.60;;;;;;;;;;6245407;28;20053;-79
2023/06/09 06:42:37;;;;;;;8.88;6.68;;;;;;;;;;6241650;28;20148;-79
2023/06/09 06:45:40;;;;;;;8.98;5.80;;;;;;;;;;6242062;28;20049;-78
2023/06/09 06:48:42;;;;;;;10.75;6.03;;;;;;;;;;6247617;28;20041;-78
2023/06/09 06:51:44;;;;;;;6.18;5.15;;;;;;;;;;6246154;28;20058;-79
2023/06/09 06:54:46;;;;;;;6.35;5.35;;;;;;;;;;6243884;28;20099;-78
2023/06/09 06:57:47;;;;;;;7.90;5.68;;;;;;;;;;6243966;28;20301;-82
2023/06/09 07:00:53;;;;;;;6.07;5.47;;;;;;;;;;6245327;28;20065;-76
2023/06/09 07:03:56;;;;;;;6.30;4.95;;;;;;;;;;6245219;28;20053;-77
2023/06/09 07:06:57;;;;;;;6.70;5.50;;;;;;;;;;6247777;28;20048;-79
2023/06/09 07:09:59;;;;;;;8.15;4.70;;;;;;;;;;6245804;28;20293;-77
2023/06/09 07:13:01;;;;;;;8.20;5.15;;;;;;;;;;6241665;28;20429;-76
2023/06/09 07:16:04;;;;;;;7.65;5.07;;;;;;;;;;6247512;28;20045;-80
2023/06/09 07:19:08;;;;;;;8.18;5.40;;;;;;;;;;6241653;28;20058;-80
2023/06/09 07:22:10;;;;;;;16.35;9.88;;;;;;;;;;6245551;28;20350;-80
2023/06/09 07:25:11;;;;;;;30.33;15.07;;;;;;;;;;6242962;28;20349;-78
2023/06/09 07:28:13;;;;;;;11.32;7.40;;;;;;;;;;6243985;28;20045;-80
2023/06/09 07:31:16;;;;;;;12.48;7.47;;;;;;;;;;6239678;28;20254;-79
2023/06/09 07:34:18;;;;;;;;;;;;;;;;;;6243195;28;20338;-79
2023/06/09 07:37:20;;;;;;;8.70;4.72;;;;;;;;;;6243511;28;19956;-78
2023/06/09 07:40:22;;;;;;;6.03;4.40;;;;;;;;;;6241473;28;20049;-77
2023/06/09 07:43:24;;;;;;;5.45;3.90;;;;;;;;;;6242229;28;20051;-80
2023/06/09 07:46:27;;;;;;;7.38;3.70;;;;;;;;;;6241789;28;20154;-81
2023/06/09 07:49:29;;;;;;;4.68;3.80;;;;;;;;;;6242690;28;20059;-78
2023/06/09 07:52:31;;;;;;;5.70;3.80;;;;;;;;;;6244575;28;20230;-77
2023/06/09 07:55:33;;;;;;;6.97;3.80;;;;;;;;;;6243468;28;20041;-80
2023/06/09 07:58:36;;;;;;;5.25;3.70;;;;;;;;;;6243449;28;20057;-75
2023/06/09 08:01:39;;;;;;;4.32;3.78;;;;;;;;;;6241765;28;20057;-77
2023/06/09 08:04:41;;;;;;;5.82;4.15;;;;;;;;;;6242492;28;20049;-80
2023/06/09 08:07:43;;;;;;;6.25;4.15;;;;;;;;;;6242802;28;20077;-79
2023/06/09 08:10:44;;;;;;;6.93;4.45;;;;;;;;;;6242682;28;20369;-80
2023/06/09 08:13:46;;;;;;;5.25;3.83;;;;;;;;;;6241914;28;20334;-79
2023/06/09 08:16:50;;;;;;;5.47;4.22;;;;;;;;;;6243723;28;20062;-82
2023/06/09 08:19:52;;;;;;;6.28;4.72;;;;;;;;;;6241376;28;20053;-80
2023/06/09 08:22:53;;;;;;;7.25;4.95;;;;;;;;;;6242266;28;20345;-79
2023/06/09 08:25:55;;;;;;;4.95;4.38;;;;;;;;;;6244137;28;20087;-79
2023/06/09 08:28:57;;;;;;;5.85;4.47;;;;;;;;;;6240380;28;20062;-84
2023/06/09 08:32:00;;;;;;;5.38;4.38;;;;;;;;;;6200963;28;1144598;-83
2023/06/09 08:35:07;;;;;;;8.25;4.30;;;;;;;;;;6243012;28;20248;-84
2023/06/09 08:38:09;;;;;;;7.82;4.70;;;;;;;;;;6246930;28;20266;-83
2023/06/09 08:41:18;;;;;;;6.72;5.03;;;;;;;;;;6245305;28;20058;-84
2023/06/09 08:44:30;;;;;;;5.78;4.13;;;;;;;;;;6246505;28;20049;-86
2023/06/09 08:47:33;;;;;;;7.57;5.30;;;;;;;;;;6245866;28;20045;-85
2023/06/09 08:50:41;;;;;;;5.90;4.03;;;;;;;;;;6248541;28;20057;-85
2023/06/09 08:53:43;;;;;;;11.63;4.50;;;;;;;;;;6248454;28;20060;-81
2023/06/09 08:56:46;;;;;;;9.02;5.03;;;;;;;;;;6244716;28;20065;-83
2023/06/09 08:59:50;;;;;;;9.30;4.32;;;;;;;;;;6246188;28;20258;-82
2023/06/09 09:02:56;;;;;;;4.45;3.88;;;;;;;;;;6245012;28;20069;-79
2023/06/09 09:05:57;;;;;;;7.20;4.40;;;;;;;;;;6242234;28;20049;-79
2023/06/09 09:08:59;;;;;;;9.05;5.13;;;;;;;;;;6241755;28;20281;-79
2023/06/09 09:12:03;;;;;;;5.67;4.90;;;;;;;;;;6242639;28;20050;-79
2023/06/09 09:15:07;;;;;;;9.35;4.57;;;;;;;;;;6245745;28;20053;-79
2023/06/09 09:18:12;;;;;;;5.72;4.70;;;;;;;;;;6240036;28;20132;-80
2023/06/09 09:21:21;;;;;;;6.22;4.68;;;;;;;;;;6232377;28;20453;-79
2023/06/09 09:24:29;;;;;;;5.10;4.00;;;;;;;;;;6242700;28;20228;-79
2023/06/09 09:27:31;;;;;;;6.25;4.45;;;;;;;;;;6239302;28;20100;-80
2023/06/09 09:30:43;;;;;;;8.93;4.53;;;;;;;;;;6241842;28;20050;-80
2023/06/09 09:33:47;;;;;;;;;;;;;;;;;;6219380;28;20049;-81
2023/06/09 09:36:54;;;;;;;7.40;5.03;;;;;;;;;;6217208;28;19988;-83
2023/06/09 09:39:56;;;;;;;5.45;3.58;;;;;;;;;;6218098;28;21089;-80
2023/06/09 09:43:01;;;;;;;4.87;3.40;;;;;;;;;;6195409;28;20337;-80
2023/06/09 09:46:04;;;;;;;5.40;4.38;;;;;;;;;;6224800;28;20133;-81
2023/06/09 09:49:08;;;;;;;4.88;3.88;;;;;;;;;;6218661;28;20050;-81
2023/06/09 09:52:12;;;;;;;5.35;3.53;;;;;;;;;;6220649;28;20050;-81
2023/06/09 09:55:14;;;;;;;7.22;3.90;;;;;;;;;;6218290;28;20061;-79
2023/06/09 09:58:16;;;;;;;4.95;3.63;;;;;;;;;;6217200;28;20050;-80
2023/06/09 10:01:19;;;;;;;6.07;4.25;;;;;;;;;;6217357;28;20092;-80
2023/06/09 10:04:24;;;;;;;8.32;4.82;;;;;;;;;;6217803;28;20246;-81
2023/06/09 10:07:27;;;;;;;6.47;4.18;;;;;;;;;;6206667;28;20242;-81
2023/06/09 10:10:31;;;;;;;7.65;3.95;;;;;;;;;;6219252;28;20124;-82
2023/06/09 10:13:34;;;;;;;4.25;3.83;;;;;;;;;;6218016;28;20068;-81
2023/06/09 10:16:38;;;;;;;4.38;3.58;;;;;;;;;;6213903;28;20050;-80
2023/06/09 10:19:44;;;;;;;5.05;3.88;;;;;;;;;;6214137;28;20061;-81
2023/06/09 10:22:47;;;;;;;4.22;3.70;;;;;;;;;;6216766;28;20069;-81
2023/06/09 10:25:50;;;;;;;4.57;3.58;;;;;;;;;;6218567;28;20381;-82
2023/06/09 10:29:02;;;;;;;4.57;3.40;;;;;;;;;;6206294;28;20058;-81
2023/06/09 10:32:04;;;;;;;5.32;3.90;;;;;;;;;;6225926;28;20042;-80
2023/06/09 10:35:10;;;;;;;8.68;4.03;;;;;;;;;;6236610;28;20239;-80
2023/06/09 10:38:22;;;;;;;4.47;3.83;;;;;;;;;;6242863;28;20053;-81
2023/06/09 10:41:34;;;;;;;6.35;3.60;;;;;;;;;;6242316;28;20325;-80
2023/06/09 10:44:48;;;;;;;4.00;3.30;;;;;;;;;;6238522;28;20249;-81
2023/06/09 10:47:51;;;;;;;7.38;4.53;;;;;;;;;;6243232;28;20232;-81
2023/06/09 10:51:33;;;;;;;4.30;3.75;;;;;;;;;;6241152;28;20061;-79
2023/06/09 10:54:37;;;;;;;5.20;3.60;;;;;;;;;;6241126;28;20125;-78
2023/06/09 10:57:42;;;;;;;4.97;3.97;;;;;;;;;;6241344;28;20049;-79
2023/06/09 11:01:07;;;;;;;9.30;4.32;;;;;;;;;;6235916;28;20056;-81
2023/06/09 11:04:49;;;;;;;5.85;4.18;;;;;;;;;;6244115;28;20215;-82
2023/06/09 11:07:59;;;;;;;7.82;4.68;;;;;;;;;;6244317;28;20050;-78
2023/06/09 11:11:16;;;;;;;6.35;4.28;;;;;;;;;;6240678;28;20064;-79
2023/06/09 11:14:51;;;;;;;5.63;4.97;;;;;;;;;;6236502;28;20052;-79
2023/06/09 11:17:56;;;;;;;12.13;6.85;;;;;;;;;;6241311;28;20042;-79
2023/06/09 11:21:15;;;;;;;6.90;4.82;;;;;;;;;;6240543;28;20057;-80
2023/06/09 11:24:20;;;;;;;7.97;4.63;;;;;;;;;;6240825;28;20057;-80
2023/06/09 11:27:22;;;;;;;7.13;4.30;;;;;;;;;;6241281;28;20125;-79
2023/06/09 11:30:27;;;;;;;8.75;4.32;;;;;;;;;;6245592;28;20045;-81
2023/06/09 11:33:53;;;;;;;9.13;6.63;;;;;;;;;;6249138;28;20222;-80
2023/06/09 11:36:58;;;;;;;12.10;6.75;;;;;;;;;;6246248;28;20064;-83
2023/06/09 11:40:05;;;;;;;7.65;5.45;;;;;;;;;;6253237;28;20052;-80
2023/06/09 11:43:08;;;;;;;8.90;6.13;;;;;;;;;;6248740;28;20400;-80
2023/06/09 11:46:12;;;;;;;9.88;6.57;;;;;;;;;;6250355;28;20214;-84
2023/06/09 11:49:14;;;;;;;8.50;5.55;;;;;;;;;;6246716;28;20037;-88
2023/06/09 11:52:19;;;;;;;8.53;6.13;;;;;;;;;;6244406;28;20081;-82
2023/06/09 11:55:29;;;;;;;10.77;7.97;;;;;;;;;;6252467;28;20053;-80
2023/06/09 11:58:33;;;;;;;9.00;7.63;;;;;;;;;;6246840;28;20113;-84
2023/06/09 12:01:36;;;;;;;10.48;7.80;;;;;;;;;;6249408;28;20071;-81
2023/06/09 12:04:41;;;;;;;9.77;8.25;;;;;;;;;;6248094;28;20385;-83
2023/06/09 12:07:46;;;;;;;10.80;7.82;;;;;;;;;;6249841;28;20120;-83
2023/06/09 12:10:54;;;;;;;11.48;7.78;;;;;;;;;;6247739;28;20061;-83
2023/06/09 12:13:57;;;;;;;10.52;7.93;;;;;;;;;;6248048;28;20068;-83
2023/06/09 12:16:59;;;;;;;10.43;6.72;;;;;;;;;;6251166;28;20333;-84
2023/06/09 12:20:24;;;;;;;7.45;5.40;;;;;;;;;;6245331;28;20540;-82
2023/06/09 12:23:33;;;;;;;8.30;6.22;;;;;;;;;;6250625;28;20330;-83
2023/06/09 12:26:47;;;;;;;11.00;6.28;;;;;;;;;;6245021;28;20052;-82
2023/06/09 12:29:52;;;;;;;6.13;5.15;;;;;;;;;;6250792;28;20342;-84
2023/06/09 12:32:59;;;;;;;7.43;6.03;;;;;;;;;;6250153;28;20057;-84
2023/06/09 12:36:10;;;;;;;7.07;4.30;;;;;;;;;;6246930;28;20107;-83
2023/06/09 12:39:20;;;;;;;5.32;3.55;;;;;;;;;;6245500;28;20057;-84
2023/06/09 12:42:30;;;;;;;5.43;4.13;;;;;;;;;;6249400;28;20060;-83
2023/06/09 12:45:33;;;;;;;4.78;3.85;;;;;;;;;;6240596;28;20061;-82
2023/06/09 12:48:55;;;;;;;5.00;3.40;;;;;;;;;;6225267;28;20276;-82
2023/06/09 12:51:59;;;;;;;4.63;3.47;;;;;;;;;;6244812;28;20085;-83
2023/06/09 12:55:02;;;;;;;5.78;4.60;;;;;;;;;;6243053;28;20063;-84
2023/06/09 12:58:07;;;;;;;5.28;4.60;;;;;;;;;;6245976;28;20300;-81
2023/06/09 13:01:10;;;;;;;5.35;3.45;;;;;;;;;;6240501;28;20056;-83
2023/06/09 13:04:12;;;;;;;6.47;5.03;;;;;;;;;;6246276;28;20084;-81
2023/06/09 13:07:14;;;;;;;;;;;;;;;;;;6244101;28;20061;-83
2023/06/09 13:10:16;;;;;;;4.95;3.72;;;;;;;;;;6249198;28;19920;-79
2023/06/09 13:13:21;;;;;;;;;;;;;;;;;;6245222;28;20069;-81
2023/06/09 13:16:22;;;;;;;6.97;4.63;;;;;;;;;;6239556;28;20002;-80
2023/06/09 13:19:25;;;;;;;8.07;3.92;;;;;;;;;;6241964;28;20057;-80
2023/06/09 13:22:28;;;;;;;5.32;3.40;;;;;;;;;;6244328;28;20046;-81
2023/06/09 13:25:31;;;;;;;5.25;4.00;;;;;;;;;;6244696;28;20075;-81
2023/06/09 13:28:35;;;;;;;7.47;3.78;;;;;;;;;;6239930;28;20262;-82
2023/06/09 13:31:39;;;;;;;3.90;3.50;;;;;;;;;;6245061;28;20102;-81
2023/06/09 13:34:41;;;;;;;4.90;3.42;;;;;;;;;;6241397;28;20293;-81
2023/06/09 13:37:45;;;;;;;7.60;3.60;;;;;;;;;;6244031;28;20292;-80
2023/06/09 13:40:48;;;;;;;5.15;2.85;;;;;;;;;;6241357;28;20046;-80
2023/06/09 13:43:51;;;;;;;4.78;3.28;;;;;;;;;;6243868;28;20058;-81
2023/06/09 13:46:54;;;;;;;7.18;3.90;;;;;;;;;;6243064;28;20049;-80
2023/06/09 13:49:57;;;;;;;3.50;3.20;;;;;;;;;;6241990;28;20061;-79
2023/06/09 13:52:59;;;;;;;4.25;3.05;;;;;;;;;;6241859;28;20049;-80
2023/06/09 13:56:01;;;;;;;6.43;3.40;;;;;;;;;;6240511;28;20064;-82
2023/06/09 13:59:06;;;;;;;4.65;3.60;;;;;;;;;;6243407;28;20053;-81
2023/06/09 14:02:11;;;;;;;6.43;4.30;;;;;;;;;;6240653;28;20049;-81
2023/06/09 14:05:13;;;;;;;5.68;3.78;;;;;;;;;;6240763;28;20107;-81
2023/06/09 14:08:17;;;;;;;7.43;4.90;;;;;;;;;;6242595;28;20064;-80
2023/06/09 14:11:18;;;;;;;9.57;4.80;;;;;;;;;;6244341;28;20054;-80
2023/06/09 14:14:23;;;;;;;7.88;4.63;;;;;;;;;;6243568;28;20228;-82
2023/06/09 14:17:26;;;;;;;5.63;4.38;;;;;;;;;;6239062;28;20073;-81
2023/06/09 14:20:28;;;;;;;9.07;4.85;;;;;;;;;;6240399;28;20046;-82
2023/06/09 14:23:31;;;;;;;5.80;5.20;;;;;;;;;;6244091;28;20479;-82
2023/06/09 14:26:33;;;;;;;7.03;5.35;;;;;;;;;;6241846;28;20046;-81
2023/06/09 14:29:40;;;;;;;9.85;6.10;;;;;;;;;;6241547;28;20304;-80
2023/06/09 14:32:47;;;;;;;6.15;5.55;;;;;;;;;;6239571;28;20233;-81
2023/06/09 14:35:49;;;;;;;7.53;6.25;;;;;;;;;;6243109;28;20066;-78
2023/06/09 14:38:51;;;;;;;8.45;5.68;;;;;;;;;;6239644;28;20049;-78
2023/06/09 14:41:55;;;;;;;7.90;5.50;;;;;;;;;;6243467;28;20106;-78
2023/06/09 14:44:59;;;;;;;6.60;5.70;;;;;;;;;;6239601;28;20057;-78
2023/06/09 14:48:03;;;;;;;8.55;6.03;;;;;;;;;;6245467;28;20054;-82
2023/06/09 14:51:04;;;;;;;8.80;5.50;;;;;;;;;;6238337;28;20475;-81
2023/06/09 14:54:07;;;;;;;9.82;5.90;;;;;;;;;;6242754;28;20104;-81
2023/06/09 14:57:09;;;;;;;12.40;8.40;;;;;;;;;;6242927;28;20057;-83
2023/06/09 15:00:17;;;;;;;7.90;6.43;;;;;;;;;;6241061;28;20347;-82
2023/06/09 15:03:20;;;;;;;13.10;6.80;;;;;;;;;;6239651;28;20049;-84
2023/06/09 15:06:23;;;;;;;8.00;6.70;;;;;;;;;;6244058;28;20360;-83
2023/06/09 15:09:27;;;;;;;;;;;;;;;;;;6246461;28;20345;-81
2023/06/09 15:12:31;;;;;;;10.93;6.55;;;;;;;;;;6247414;28;19925;-80
2023/06/09 15:15:36;;;;;;;10.88;6.40;;;;;;;;;;6246733;28;20053;-80
2023/06/09 15:18:41;;;;;;;9.57;7.10;;;;;;;;;;6243367;28;20104;-80
2023/06/09 15:21:44;;;;;;;10.35;6.90;;;;;;;;;;6245784;28;20121;-78
2023/06/09 15:24:47;;;;;;;9.10;6.40;;;;;;;;;;6249776;28;20057;-79
2023/06/09 15:27:49;;;;;;;11.73;6.60;;;;;;;;;;6242896;28;20091;-79
2023/06/09 15:30:52;;;;;;;8.80;6.47;;;;;;;;;;6244482;28;20060;-79
2023/06/09 15:33:56;;;;;;;13.93;6.53;;;;;;;;;;6241962;28;20061;-79
2023/06/09 15:36:57;;;;;;;12.63;5.53;;;;;;;;;;6245481;28;20053;-79
2023/06/09 15:39:59;;;;;;;9.75;5.88;;;;;;;;;;6243455;28;20077;-79
2023/06/09 15:43:03;;;;;;;7.13;5.15;;;;;;;;;;6244790;28;20345;-78
2023/06/09 15:46:08;;;;;;;7.07;5.63;;;;;;;;;;6246869;28;20156;-79
2023/06/09 15:49:11;;;;;;;6.63;5.93;;;;;;;;;;6245902;28;20049;-79
2023/06/09 15:52:15;;;;;;;9.10;5.70;;;;;;;;;;6245476;28;20073;-80
2023/06/09 15:55:17;;;;;;;6.70;5.43;;;;;;;;;;6242060;28;20052;-79
2023/06/09 15:58:24;;;;;;;7.72;6.18;;;;;;;;;;6234878;28;20221;-79
2023/06/09 16:01:28;;;;;;;8.63;5.93;;;;;;;;;;6254409;28;20041;-79
2023/06/09 16:04:33;;;;;;;8.55;5.68;;;;;;;;;;6245448;28;20057;-79
2023/06/09 16:07:35;;;;;;;7.43;6.60;;;;;;;;;;6245510;28;20363;-78
2023/06/09 16:10:38;;;;;;;9.02;6.75;;;;;;;;;;6240817;28;20069;-79
2023/06/09 16:13:41;;;;;;;8.55;5.90;;;;;;;;;;6245322;28;20057;-79
2023/06/09 16:16:45;;;;;;;8.52;6.05;;;;;;;;;;6243392;28;20253;-79
2023/06/09 16:19:47;;;;;;;7.72;6.22;;;;;;;;;;6242422;28;20049;-79
2023/06/09 16:22:50;;;;;;;10.95;5.65;;;;;;;;;;6240215;28;20057;-79
2023/06/09 16:25:52;;;;;;;8.57;6.35;;;;;;;;;;6244063;28;20057;-79
2023/06/09 16:28:54;;;;;;;7.32;4.80;;;;;;;;;;6240421;28;20219;-79
2023/06/09 16:31:57;;;;;;;13.40;5.47;;;;;;;;;;6242437;28;20242;-79
2023/06/09 16:34:59;;;;;;;8.63;5.00;;;;;;;;;;6245129;28;20207;-79
2023/06/09 16:38:01;;;;;;;5.45;4.47;;;;;;;;;;6247866;28;20053;-79
2023/06/09 16:41:03;;;;;;;7.65;4.47;;;;;;;;;;6243480;28;20052;-79
2023/06/09 16:44:05;;;;;;;6.10;4.20;;;;;;;;;;6243119;28;20057;-88
2023/06/09 16:47:09;;;;;;;4.93;3.72;;;;;;;;;;6260291;28;20049;-81
2023/06/09 16:50:11;;;;;;;4.95;3.97;;;;;;;;;;6242291;28;20479;-81
2023/06/09 16:53:13;;;;;;;5.78;4.20;;;;;;;;;;6241379;28;20041;-83
2023/06/09 16:56:14;;;;;;;4.85;3.80;;;;;;;;;;6240887;28;20048;-81
2023/06/09 16:59:16;;;;;;;6.03;4.57;;;;;;;;;;6242311;28;20049;-78
2023/06/09 17:02:20;;;;;;;5.65;3.95;;;;;;;;;;6242557;28;20057;-86
2023/06/09 17:05:22;;;;;;;4.72;3.75;;;;;;;;;;6244570;28;20054;-82
2023/06/09 17:08:23;;;;;;;5.28;4.07;;;;;;;;;;6241342;28;20141;-84
2023/06/09 17:11:26;;;;;;;6.43;3.90;;;;;;;;;;6240283;28;20273;-83
2023/06/09 17:14:27;;;;;;;5.38;3.75;;;;;;;;;;6246098;28;20186;-84
2023/06/09 17:17:30;;;;;;;5.93;3.88;;;;;;;;;;6246102;28;20053;-83
2023/06/09 17:20:33;;;;;;;5.47;3.83;;;;;;;;;;6243043;28;20127;-84
2023/06/09 17:23:35;;;;;;;5.95;4.30;;;;;;;;;;6243432;28;20057;-84
2023/06/09 17:26:36;;;;;;;5.40;4.03;;;;;;;;;;6241391;28;20049;-85
2023/06/09 17:29:38;;;;;;;7.15;3.78;;;;;;;;;;6246261;28;20193;-83
2023/06/09 17:32:41;;;;;;;4.32;3.22;;;;;;;;;;6240597;28;20057;-85
2023/06/09 17:35:43;;;;;;;;;;;;;;;;;;6241827;28;20081;-83
2023/06/09 17:38:45;;;;;;;7.18;3.88;;;;;;;;;;6243118;28;20097;-83
2023/06/09 17:41:46;;;;;;;9.38;4.07;;;;;;;;;;6241091;28;20281;-84
2023/06/09 17:44:49;;;;;;;6.22;4.10;;;;;;;;;;6240988;28;20052;-85
2023/06/09 17:47:52;;;;;;;6.10;4.07;;;;;;;;;;6242781;28;20112;-85
2023/06/09 17:50:54;;;;;;;7.30;4.15;;;;;;;;;;6244785;28;20058;-86
2023/06/09 17:53:56;;;;;;;4.20;3.80;;;;;;;;;;6242893;28;20361;-87
2023/06/09 17:56:58;;;;;;;5.65;3.80;;;;;;;;;;6244465;28;20076;-86
2023/06/09 18:00:00;;;;;;;4.95;4.10;;;;;;;;;;6252523;28;20064;-84
2023/06/09 18:03:03;;;;;;;5.37;4.07;;;;;;;;;;6252846;28;20057;-84
2023/06/09 18:06:05;;;;;;;;;;;;;;;;;;6252459;28;20734;-86
2023/06/09 18:09:07;;;;;;;6.50;4.30;;;;;;;;;;6248959;28;20130;-86
2023/06/09 18:12:10;;;;;;;7.22;3.85;;;;;;;;;;6248204;28;20050;-86
2023/06/09 18:15:11;;;;;;;4.82;3.97;;;;;;;;;;6244127;28;20882;-86